sensor_id;sensor_type;location;lat;lon;timestamp;temperature;humidity
69335;SHT31;56477;52.742;15.242;2022-12-01T00:00:03;-0.41;95.37
69335;SHT31;56477;52.742;15.242;2022-12-01T00:02:50;-0.49;95.58
69335;SHT31;56477;52.742;15.242;2022-12-01T00:05:15;-0.46;95.42
69335;SHT31;56477;52.742;15.242;2022-12-01T00:07:41;-0.48;95.15
69335;SHT31;56477;52.742;15.242;2022-12-01T00:10:09;-0.51;95.29
69335;SHT31;56477;52.742;15.242;2022-12-01T00:12:55;-0.51;95.37
69335;SHT31;56477;52.742;15.242;2022-12-01T00:15:24;-0.51;95.15
69335;SHT31;56477;52.742;15.242;2022-12-01T00:17:50;-0.52;95.48
69335;SHT31;56477;52.742;15.242;2022-12-01T00:20:16;-0.52;95.31
69335;SHT31;56477;52.742;15.242;2022-12-01T00:22:44;-0.55;95.47
69335;SHT31;56477;52.742;15.242;2022-12-01T00:25:11;-0.56;95.23
69335;SHT31;56477;52.742;15.242;2022-12-01T00:27:38;-0.58;95.05
69335;SHT31;56477;52.742;15.242;2022-12-01T00:30:06;-0.63;94.98
69335;SHT31;56477;52.742;15.242;2022-12-01T00:32:32;-0.62;95.04
69335;SHT31;56477;52.742;15.242;2022-12-01T00:34:58;-0.68;95.20
69335;SHT31;56477;52.742;15.242;2022-12-01T00:37:24;-0.69;95.12
69335;SHT31;56477;52.742;15.242;2022-12-01T00:39:50;-0.68;95.15
69335;SHT31;56477;52.742;15.242;2022-12-01T00:42:16;-0.65;95.20
69335;SHT31;56477;52.742;15.242;2022-12-01T00:44:45;-0.58;95.21
69335;SHT31;56477;52.742;15.242;2022-12-01T00:47:12;-0.62;95.20
69335;SHT31;56477;52.742;15.242;2022-12-01T00:49:38;-0.59;95.28
69335;SHT31;56477;52.742;15.242;2022-12-01T00:52:04;-0.59;95.36
69335;SHT31;56477;52.742;15.242;2022-12-01T00:54:30;-0.62;95.32
69335;SHT31;56477;52.742;15.242;2022-12-01T00:56:57;-0.61;95.27
69335;SHT31;56477;52.742;15.242;2022-12-01T00:59:23;-0.61;95.46
69335;SHT31;56477;52.742;15.242;2022-12-01T01:01:49;-0.59;95.24
69335;SHT31;56477;52.742;15.242;2022-12-01T01:04:15;-0.63;95.51
69335;SHT31;56477;52.742;15.242;2022-12-01T01:06:41;-0.63;95.45
69335;SHT31;56477;52.742;15.242;2022-12-01T01:09:10;-0.56;95.74
69335;SHT31;56477;52.742;15.242;2022-12-01T01:11:37;-0.56;95.47
69335;SHT31;56477;52.742;15.242;2022-12-01T01:14:03;-0.56;95.50
69335;SHT31;56477;52.742;15.242;2022-12-01T01:16:29;-0.55;95.35
69335;SHT31;56477;52.742;15.242;2022-12-01T01:18:54;-0.56;95.37
69335;SHT31;56477;52.742;15.242;2022-12-01T01:21:23;-0.55;95.41
69335;SHT31;56477;52.742;15.242;2022-12-01T01:23:51;-0.56;95.22
69335;SHT31;56477;52.742;15.242;2022-12-01T01:26:23;-0.53;95.09
69335;SHT31;56477;52.742;15.242;2022-12-01T01:28:49;-0.53;95.14
69335;SHT31;56477;52.742;15.242;2022-12-01T01:31:19;-0.51;95.22
69335;SHT31;56477;52.742;15.242;2022-12-01T01:33:45;-0.45;95.48
69335;SHT31;56477;52.742;15.242;2022-12-01T01:36:12;-0.41;95.55
69335;SHT31;56477;52.742;15.242;2022-12-01T01:38:38;-0.43;95.38
69335;SHT31;56477;52.742;15.242;2022-12-01T01:41:05;-0.42;95.20
69335;SHT31;56477;52.742;15.242;2022-12-01T01:46:09;-0.39;95.32
69335;SHT31;56477;52.742;15.242;2022-12-01T01:48:37;-0.39;95.37
69335;SHT31;56477;52.742;15.242;2022-12-01T01:51:06;-0.41;95.08
69335;SHT31;56477;52.742;15.242;2022-12-01T01:53:32;-0.42;94.93
69335;SHT31;56477;52.742;15.242;2022-12-01T01:55:59;-0.48;95.04
69335;SHT31;56477;52.742;15.242;2022-12-01T01:58:28;-0.52;95.31
69335;SHT31;56477;52.742;15.242;2022-12-01T02:00:54;-0.52;95.46
69335;SHT31;56477;52.742;15.242;2022-12-01T02:03:20;-0.48;95.48
69335;SHT31;56477;52.742;15.242;2022-12-01T02:05:47;-0.46;95.38
69335;SHT31;56477;52.742;15.242;2022-12-01T02:08:13;-0.49;95.08
69335;SHT31;56477;52.742;15.242;2022-12-01T02:10:52;-0.49;95.19
69335;SHT31;56477;52.742;15.242;2022-12-01T02:13:25;-0.48;95.15
69335;SHT31;56477;52.742;15.242;2022-12-01T02:18:54;-0.51;95.18
69335;SHT31;56477;52.742;15.242;2022-12-01T02:27:06;-0.55;95.16
69335;SHT31;56477;52.742;15.242;2022-12-01T02:42:50;-0.49;95.04
69335;SHT31;56477;52.742;15.242;2022-12-01T02:45:35;-0.49;95.36
69335;SHT31;56477;52.742;15.242;2022-12-01T02:48:10;-0.49;95.34
69335;SHT31;56477;52.742;15.242;2022-12-01T02:50:37;-0.48;95.22
69335;SHT31;56477;52.742;15.242;2022-12-01T02:53:05;-0.45;95.34
69335;SHT31;56477;52.742;15.242;2022-12-01T02:55:32;-0.43;95.36
69335;SHT31;56477;52.742;15.242;2022-12-01T02:57:58;-0.39;95.35
69335;SHT31;56477;52.742;15.242;2022-12-01T03:00:24;-0.38;94.78
69335;SHT31;56477;52.742;15.242;2022-12-01T03:06:07;-0.42;94.62
69335;SHT31;56477;52.742;15.242;2022-12-01T03:11:37;-0.48;94.73
69335;SHT31;56477;52.742;15.242;2022-12-01T03:16:53;-0.49;94.66
69335;SHT31;56477;52.742;15.242;2022-12-01T03:19:43;-0.48;95.05
69335;SHT31;56477;52.742;15.242;2022-12-01T03:22:16;-0.49;94.84
69335;SHT31;56477;52.742;15.242;2022-12-01T03:24:46;-0.45;95.03
69335;SHT31;56477;52.742;15.242;2022-12-01T03:27:15;-0.46;94.88
69335;SHT31;56477;52.742;15.242;2022-12-01T03:29:45;-0.51;94.73
69335;SHT31;56477;52.742;15.242;2022-12-01T03:32:17;-0.49;95.06
69335;SHT31;56477;52.742;15.242;2022-12-01T03:34:49;-0.49;94.89
69335;SHT31;56477;52.742;15.242;2022-12-01T03:37:39;-0.49;94.89
69335;SHT31;56477;52.742;15.242;2022-12-01T03:40:09;-0.49;94.93
69335;SHT31;56477;52.742;15.242;2022-12-01T03:42:44;-0.45;95.02
69335;SHT31;56477;52.742;15.242;2022-12-01T03:45:23;-0.41;95.02
69335;SHT31;56477;52.742;15.242;2022-12-01T03:47:51;-0.39;94.81
69335;SHT31;56477;52.742;15.242;2022-12-01T03:50:17;-0.41;94.57
69335;SHT31;56477;52.742;15.242;2022-12-01T03:58:01;-0.39;94.71
69335;SHT31;56477;52.742;15.242;2022-12-01T04:00:29;-0.43;94.68
69335;SHT31;56477;52.742;15.242;2022-12-01T04:02:56;-0.42;94.66
69335;SHT31;56477;52.742;15.242;2022-12-01T04:05:24;-0.38;94.90
69335;SHT31;56477;52.742;15.242;2022-12-01T04:07:50;-0.38;94.89
69335;SHT31;56477;52.742;15.242;2022-12-01T04:10:16;-0.35;94.78
69335;SHT31;56477;52.742;15.242;2022-12-01T04:12:42;-0.38;94.81
69335;SHT31;56477;52.742;15.242;2022-12-01T04:15:11;-0.36;94.90
69335;SHT31;56477;52.742;15.242;2022-12-01T04:17:40;-0.32;94.81
69335;SHT31;56477;52.742;15.242;2022-12-01T04:20:15;-0.26;94.58
69335;SHT31;56477;52.742;15.242;2022-12-01T04:22:41;-0.28;94.60
69335;SHT31;56477;52.742;15.242;2022-12-01T04:25:07;-0.26;94.38
69335;SHT31;56477;52.742;15.242;2022-12-01T04:27:34;-0.24;94.56
69335;SHT31;56477;52.742;15.242;2022-12-01T04:30:01;-0.24;94.44
69335;SHT31;56477;52.742;15.242;2022-12-01T04:32:26;-0.22;94.52
69335;SHT31;56477;52.742;15.242;2022-12-01T04:34:53;-0.22;94.54
69335;SHT31;56477;52.742;15.242;2022-12-01T04:37:18;-0.19;94.48
69335;SHT31;56477;52.742;15.242;2022-12-01T04:39:45;-0.19;94.62
69335;SHT31;56477;52.742;15.242;2022-12-01T04:42:11;-0.14;94.60
69335;SHT31;56477;52.742;15.242;2022-12-01T04:44:37;-0.10;94.62
69335;SHT31;56477;52.742;15.242;2022-12-01T04:47:03;-0.10;94.57
69335;SHT31;56477;52.742;15.242;2022-12-01T04:49:30;-0.07;94.36
69335;SHT31;56477;52.742;15.242;2022-12-01T04:51:56;-0.07;94.53
69335;SHT31;56477;52.742;15.242;2022-12-01T04:54:22;-0.03;94.47
69335;SHT31;56477;52.742;15.242;2022-12-01T04:56:49;-0.01;94.35
69335;SHT31;56477;52.742;15.242;2022-12-01T04:59:15;0.00;94.34
69335;SHT31;56477;52.742;15.242;2022-12-01T05:01:41;0.02;94.27
69335;SHT31;56477;52.742;15.242;2022-12-01T05:04:10;0.05;94.47
69335;SHT31;56477;52.742;15.242;2022-12-01T05:06:37;0.02;94.27
69335;SHT31;56477;52.742;15.242;2022-12-01T05:09:04;0.09;94.37
69335;SHT31;56477;52.742;15.242;2022-12-01T05:11:31;0.07;94.26
69335;SHT31;56477;52.742;15.242;2022-12-01T05:13:58;0.06;94.27
69335;SHT31;56477;52.742;15.242;2022-12-01T05:16:30;0.10;94.26
69335;SHT31;56477;52.742;15.242;2022-12-01T05:19:02;0.11;94.02
69335;SHT31;56477;52.742;15.242;2022-12-01T05:21:48;0.11;94.08
69335;SHT31;56477;52.742;15.242;2022-12-01T05:24:14;0.13;94.05
69335;SHT31;56477;52.742;15.242;2022-12-01T05:26:41;0.16;94.09
69335;SHT31;56477;52.742;15.242;2022-12-01T05:29:08;0.16;94.11
69335;SHT31;56477;52.742;15.242;2022-12-01T05:31:34;0.17;94.05
69335;SHT31;56477;52.742;15.242;2022-12-01T05:34:00;0.18;93.69
69335;SHT31;56477;52.742;15.242;2022-12-01T05:36:27;0.18;93.80
69335;SHT31;56477;52.742;15.242;2022-12-01T05:38:52;0.18;93.82
69335;SHT31;56477;52.742;15.242;2022-12-01T05:41:19;0.18;93.72
69335;SHT31;56477;52.742;15.242;2022-12-01T05:43:45;0.23;93.37
69335;SHT31;56477;52.742;15.242;2022-12-01T05:46:12;0.23;93.39
69335;SHT31;56477;52.742;15.242;2022-12-01T05:48:38;0.21;93.47
69335;SHT31;56477;52.742;15.242;2022-12-01T05:51:12;0.23;93.29
69335;SHT31;56477;52.742;15.242;2022-12-01T05:53:38;0.26;93.41
69335;SHT31;56477;52.742;15.242;2022-12-01T05:56:05;0.30;93.36
69335;SHT31;56477;52.742;15.242;2022-12-01T05:58:31;0.26;93.26
69335;SHT31;56477;52.742;15.242;2022-12-01T06:00:57;0.27;93.41
69335;SHT31;56477;52.742;15.242;2022-12-01T06:03:23;0.26;93.19
69335;SHT31;56477;52.742;15.242;2022-12-01T06:05:50;0.27;93.10
69335;SHT31;56477;52.742;15.242;2022-12-01T06:08:16;0.28;92.85
69335;SHT31;56477;52.742;15.242;2022-12-01T06:10:43;0.31;92.98
69335;SHT31;56477;52.742;15.242;2022-12-01T06:13:09;0.30;92.81
69335;SHT31;56477;52.742;15.242;2022-12-01T06:15:35;0.33;92.75
69335;SHT31;56477;52.742;15.242;2022-12-01T06:18:01;0.31;92.86
69335;SHT31;56477;52.742;15.242;2022-12-01T06:20:27;0.34;92.79
69335;SHT31;56477;52.742;15.242;2022-12-01T06:22:53;0.33;92.82
69335;SHT31;56477;52.742;15.242;2022-12-01T06:25:19;0.37;92.88
69335;SHT31;56477;52.742;15.242;2022-12-01T06:27:45;0.41;92.78
69335;SHT31;56477;52.742;15.242;2022-12-01T06:30:12;0.40;92.64
69335;SHT31;56477;52.742;15.242;2022-12-01T06:32:38;0.40;92.49
69335;SHT31;56477;52.742;15.242;2022-12-01T06:35:04;0.41;92.81
69335;SHT31;56477;52.742;15.242;2022-12-01T06:37:30;0.38;92.49
69335;SHT31;56477;52.742;15.242;2022-12-01T06:39:56;0.44;92.44
69335;SHT31;56477;52.742;15.242;2022-12-01T06:42:22;0.43;92.42
69335;SHT31;56477;52.742;15.242;2022-12-01T06:44:48;0.40;92.94
69335;SHT31;56477;52.742;15.242;2022-12-01T06:47:14;0.37;92.19
69335;SHT31;56477;52.742;15.242;2022-12-01T06:49:40;0.34;92.24
69335;SHT31;56477;52.742;15.242;2022-12-01T06:52:06;0.41;92.04
69335;SHT31;56477;52.742;15.242;2022-12-01T06:54:32;0.40;91.97
69335;SHT31;56477;52.742;15.242;2022-12-01T06:56:59;0.37;91.88
69335;SHT31;56477;52.742;15.242;2022-12-01T06:59:25;0.40;92.00
69335;SHT31;56477;52.742;15.242;2022-12-01T07:01:51;0.40;92.25
69335;SHT31;56477;52.742;15.242;2022-12-01T07:04:17;0.38;92.06
69335;SHT31;56477;52.742;15.242;2022-12-01T07:06:43;0.40;92.34
69335;SHT31;56477;52.742;15.242;2022-12-01T07:09:09;0.40;91.93
69335;SHT31;56477;52.742;15.242;2022-12-01T07:11:35;0.38;92.28
69335;SHT31;56477;52.742;15.242;2022-12-01T07:14:01;0.40;91.93
69335;SHT31;56477;52.742;15.242;2022-12-01T07:16:28;0.40;92.12
69335;SHT31;56477;52.742;15.242;2022-12-01T07:18:54;0.34;92.18
69335;SHT31;56477;52.742;15.242;2022-12-01T07:21:20;0.37;92.53
69335;SHT31;56477;52.742;15.242;2022-12-01T07:23:46;0.37;92.44
69335;SHT31;56477;52.742;15.242;2022-12-01T07:26:15;0.34;92.52
69335;SHT31;56477;52.742;15.242;2022-12-01T07:28:42;0.34;92.54
69335;SHT31;56477;52.742;15.242;2022-12-01T07:31:09;0.33;92.67
69335;SHT31;56477;52.742;15.242;2022-12-01T07:33:36;0.33;92.80
69335;SHT31;56477;52.742;15.242;2022-12-01T07:36:02;0.33;92.95
69335;SHT31;56477;52.742;15.242;2022-12-01T07:38:30;0.34;92.73
69335;SHT31;56477;52.742;15.242;2022-12-01T07:41:10;0.33;92.55
69335;SHT31;56477;52.742;15.242;2022-12-01T07:43:37;0.37;92.76
69335;SHT31;56477;52.742;15.242;2022-12-01T07:48:35;0.34;92.54
69335;SHT31;56477;52.742;15.242;2022-12-01T07:51:02;0.34;92.89
69335;SHT31;56477;52.742;15.242;2022-12-01T07:53:30;0.41;92.85
69335;SHT31;56477;52.742;15.242;2022-12-01T07:55:56;0.40;92.73
69335;SHT31;56477;52.742;15.242;2022-12-01T07:58:22;0.43;92.50
69335;SHT31;56477;52.742;15.242;2022-12-01T08:00:48;0.43;92.15
69335;SHT31;56477;52.742;15.242;2022-12-01T08:03:14;0.48;92.23
69335;SHT31;56477;52.742;15.242;2022-12-01T08:05:40;0.50;91.99
69335;SHT31;56477;52.742;15.242;2022-12-01T08:08:06;0.50;91.85
69335;SHT31;56477;52.742;15.242;2022-12-01T08:10:32;0.55;91.84
69335;SHT31;56477;52.742;15.242;2022-12-01T08:12:58;0.55;92.23
69335;SHT31;56477;52.742;15.242;2022-12-01T08:15:24;0.60;91.76
69335;SHT31;56477;52.742;15.242;2022-12-01T08:17:50;0.60;91.82
69335;SHT31;56477;52.742;15.242;2022-12-01T08:20:15;0.71;92.26
69335;SHT31;56477;52.742;15.242;2022-12-01T08:22:42;0.75;91.33
69335;SHT31;56477;52.742;15.242;2022-12-01T08:25:08;0.79;91.32
69335;SHT31;56477;52.742;15.242;2022-12-01T08:27:34;0.84;91.45
69335;SHT31;56477;52.742;15.242;2022-12-01T08:30:00;0.91;91.40
69335;SHT31;56477;52.742;15.242;2022-12-01T08:32:27;0.92;90.98
69335;SHT31;56477;52.742;15.242;2022-12-01T08:34:54;0.97;91.46
69335;SHT31;56477;52.742;15.242;2022-12-01T08:37:20;1.02;91.41
69335;SHT31;56477;52.742;15.242;2022-12-01T08:39:46;1.05;91.23
69335;SHT31;56477;52.742;15.242;2022-12-01T08:42:12;1.10;91.27
69335;SHT31;56477;52.742;15.242;2022-12-01T08:44:38;1.10;90.78
69335;SHT31;56477;52.742;15.242;2022-12-01T08:47:04;1.17;90.82
69335;SHT31;56477;52.742;15.242;2022-12-01T08:49:30;1.10;90.40
69335;SHT31;56477;52.742;15.242;2022-12-01T08:51:56;1.10;90.17
69335;SHT31;56477;52.742;15.242;2022-12-01T08:54:22;1.15;90.22
69335;SHT31;56477;52.742;15.242;2022-12-01T08:56:48;1.15;90.29
69335;SHT31;56477;52.742;15.242;2022-12-01T08:59:14;1.15;90.16
69335;SHT31;56477;52.742;15.242;2022-12-01T09:01:40;1.19;89.80
69335;SHT31;56477;52.742;15.242;2022-12-01T09:04:23;1.12;89.55
69335;SHT31;56477;52.742;15.242;2022-12-01T09:06:51;1.22;89.96
69335;SHT31;56477;52.742;15.242;2022-12-01T09:09:19;1.29;89.83
69335;SHT31;56477;52.742;15.242;2022-12-01T09:11:47;1.30;89.35
69335;SHT31;56477;52.742;15.242;2022-12-01T09:14:14;1.39;89.62
69335;SHT31;56477;52.742;15.242;2022-12-01T09:16:42;1.42;89.13
69335;SHT31;56477;52.742;15.242;2022-12-01T09:19:08;1.47;89.38
69335;SHT31;56477;52.742;15.242;2022-12-01T09:21:35;1.48;89.51
69335;SHT31;56477;52.742;15.242;2022-12-01T09:24:05;1.51;88.75
69335;SHT31;56477;52.742;15.242;2022-12-01T09:26:32;1.60;89.03
69335;SHT31;56477;52.742;15.242;2022-12-01T09:29:05;1.50;88.45
69335;SHT31;56477;52.742;15.242;2022-12-01T09:31:31;1.43;88.99
69335;SHT31;56477;52.742;15.242;2022-12-01T09:34:03;1.51;88.99
69335;SHT31;56477;52.742;15.242;2022-12-01T09:36:31;1.57;89.20
69335;SHT31;56477;52.742;15.242;2022-12-01T09:38:58;1.53;89.30
69335;SHT31;56477;52.742;15.242;2022-12-01T09:41:46;1.58;88.88
69335;SHT31;56477;52.742;15.242;2022-12-01T09:46:59;1.51;89.14
69335;SHT31;56477;52.742;15.242;2022-12-01T09:52:14;1.70;89.29
69335;SHT31;56477;52.742;15.242;2022-12-01T09:54:40;1.63;89.14
69335;SHT31;56477;52.742;15.242;2022-12-01T09:57:35;1.55;88.92
69335;SHT31;56477;52.742;15.242;2022-12-01T10:00:03;1.54;89.41
69335;SHT31;56477;52.742;15.242;2022-12-01T10:02:35;1.61;89.34
69335;SHT31;56477;52.742;15.242;2022-12-01T10:05:05;1.60;89.21
69335;SHT31;56477;52.742;15.242;2022-12-01T10:07:58;1.71;89.42
69335;SHT31;56477;52.742;15.242;2022-12-01T10:10:29;1.77;89.28
69335;SHT31;56477;52.742;15.242;2022-12-01T10:12:56;1.75;88.80
69335;SHT31;56477;52.742;15.242;2022-12-01T10:16:26;1.77;88.83
69335;SHT31;56477;52.742;15.242;2022-12-01T10:21:15;1.73;88.92
69335;SHT31;56477;52.742;15.242;2022-12-01T10:26:30;1.84;89.22
69335;SHT31;56477;52.742;15.242;2022-12-01T10:29:12;1.81;88.73
69335;SHT31;56477;52.742;15.242;2022-12-01T10:34:17;1.78;89.28
69335;SHT31;56477;52.742;15.242;2022-12-01T10:36:44;1.73;88.95
69335;SHT31;56477;52.742;15.242;2022-12-01T10:39:18;1.74;88.71
69335;SHT31;56477;52.742;15.242;2022-12-01T10:41:47;1.75;88.61
69335;SHT31;56477;52.742;15.242;2022-12-01T10:44:16;1.74;88.18
69335;SHT31;56477;52.742;15.242;2022-12-01T10:46:49;1.78;88.32
69335;SHT31;56477;52.742;15.242;2022-12-01T10:49:17;1.79;88.62
69335;SHT31;56477;52.742;15.242;2022-12-01T10:51:53;1.78;88.74
69335;SHT31;56477;52.742;15.242;2022-12-01T10:54:20;1.84;88.72
69335;SHT31;56477;52.742;15.242;2022-12-01T10:56:47;1.86;88.87
69335;SHT31;56477;52.742;15.242;2022-12-01T11:02:18;1.92;88.38
69335;SHT31;56477;52.742;15.242;2022-12-01T11:05:03;1.97;88.12
69335;SHT31;56477;52.742;15.242;2022-12-01T11:07:44;1.95;88.19
69335;SHT31;56477;52.742;15.242;2022-12-01T11:10:31;1.89;87.87
69335;SHT31;56477;52.742;15.242;2022-12-01T11:15:51;1.86;87.85
69335;SHT31;56477;52.742;15.242;2022-12-01T11:18:27;1.92;88.28
69335;SHT31;56477;52.742;15.242;2022-12-01T11:23:51;1.91;87.91
69335;SHT31;56477;52.742;15.242;2022-12-01T11:26:32;1.94;88.52
69335;SHT31;56477;52.742;15.242;2022-12-01T11:29:05;1.95;88.32
69335;SHT31;56477;52.742;15.242;2022-12-01T11:34:14;2.02;87.93
69335;SHT31;56477;52.742;15.242;2022-12-01T11:36:45;2.04;87.96
69335;SHT31;56477;52.742;15.242;2022-12-01T11:39:38;2.05;88.13
69335;SHT31;56477;52.742;15.242;2022-12-01T11:44:50;2.04;87.60
69335;SHT31;56477;52.742;15.242;2022-12-01T11:47:19;1.99;87.79
69335;SHT31;56477;52.742;15.242;2022-12-01T11:49:54;2.04;87.53
69335;SHT31;56477;52.742;15.242;2022-12-01T11:52:38;2.02;87.37
69335;SHT31;56477;52.742;15.242;2022-12-01T11:57:40;1.99;87.56
69335;SHT31;56477;52.742;15.242;2022-12-01T12:00:22;1.97;87.44
69335;SHT31;56477;52.742;15.242;2022-12-01T12:09:27;1.89;88.08
69335;SHT31;56477;52.742;15.242;2022-12-01T12:17:22;1.95;88.50
69335;SHT31;56477;52.742;15.242;2022-12-01T12:31:29;1.94;88.25
69335;SHT31;56477;52.742;15.242;2022-12-01T12:36:48;1.91;87.88
69335;SHT31;56477;52.742;15.242;2022-12-01T12:41:46;1.95;87.86
69335;SHT31;56477;52.742;15.242;2022-12-01T12:50:14;2.01;87.45
69335;SHT31;56477;52.742;15.242;2022-12-01T12:52:45;1.98;87.32
69335;SHT31;56477;52.742;15.242;2022-12-01T12:55:35;1.98;87.38
69335;SHT31;56477;52.742;15.242;2022-12-01T12:58:13;1.98;86.91
69335;SHT31;56477;52.742;15.242;2022-12-01T13:01:03;2.01;87.18
69335;SHT31;56477;52.742;15.242;2022-12-01T13:03:49;2.05;86.94
69335;SHT31;56477;52.742;15.242;2022-12-01T13:06:22;2.05;87.54
69335;SHT31;56477;52.742;15.242;2022-12-01T13:08:54;2.02;86.86
69335;SHT31;56477;52.742;15.242;2022-12-01T13:11:46;2.06;87.37
69335;SHT31;56477;52.742;15.242;2022-12-01T13:14:25;2.08;87.19
69335;SHT31;56477;52.742;15.242;2022-12-01T13:16:56;2.12;87.27
69335;SHT31;56477;52.742;15.242;2022-12-01T13:19:27;2.09;87.38
69335;SHT31;56477;52.742;15.242;2022-12-01T13:21:54;2.04;87.42
69335;SHT31;56477;52.742;15.242;2022-12-01T13:24:23;2.05;87.52
69335;SHT31;56477;52.742;15.242;2022-12-01T13:27:13;2.04;87.25
69335;SHT31;56477;52.742;15.242;2022-12-01T13:29:46;2.02;87.26
69335;SHT31;56477;52.742;15.242;2022-12-01T13:32:38;2.02;87.51
69335;SHT31;56477;52.742;15.242;2022-12-01T13:35:28;1.99;87.15
69335;SHT31;56477;52.742;15.242;2022-12-01T13:38:15;1.95;87.35
69335;SHT31;56477;52.742;15.242;2022-12-01T13:40:42;1.92;87.68
69335;SHT31;56477;52.742;15.242;2022-12-01T13:43:17;1.94;87.75
69335;SHT31;56477;52.742;15.242;2022-12-01T13:45:45;1.94;87.31
69335;SHT31;56477;52.742;15.242;2022-12-01T13:51:06;1.91;87.79
69335;SHT31;56477;52.742;15.242;2022-12-01T13:53:35;1.89;88.00
69335;SHT31;56477;52.742;15.242;2022-12-01T14:03:58;1.92;87.74
69335;SHT31;56477;52.742;15.242;2022-12-01T14:09:30;1.82;87.78
69335;SHT31;56477;52.742;15.242;2022-12-01T14:12:05;1.84;87.85
69335;SHT31;56477;52.742;15.242;2022-12-01T14:14:44;1.84;87.82
69335;SHT31;56477;52.742;15.242;2022-12-01T14:17:46;1.79;87.68
69335;SHT31;56477;52.742;15.242;2022-12-01T14:22:41;1.78;88.03
69335;SHT31;56477;52.742;15.242;2022-12-01T14:27:49;1.77;88.68
69335;SHT31;56477;52.742;15.242;2022-12-01T14:41:46;1.75;88.50
69335;SHT31;56477;52.742;15.242;2022-12-01T14:49:52;1.79;88.58
69335;SHT31;56477;52.742;15.242;2022-12-01T14:55:20;1.71;88.99
69335;SHT31;56477;52.742;15.242;2022-12-01T14:57:51;1.70;88.91
69335;SHT31;56477;52.742;15.242;2022-12-01T15:00:21;1.68;89.13
69335;SHT31;56477;52.742;15.242;2022-12-01T15:02:50;1.65;89.17
69335;SHT31;56477;52.742;15.242;2022-12-01T15:05:20;1.68;88.87
69335;SHT31;56477;52.742;15.242;2022-12-01T15:07:49;1.63;88.75
69335;SHT31;56477;52.742;15.242;2022-12-01T15:10:19;1.60;89.11
69335;SHT31;56477;52.742;15.242;2022-12-01T15:12:46;1.63;89.28
69335;SHT31;56477;52.742;15.242;2022-12-01T15:15:25;1.63;89.11
69335;SHT31;56477;52.742;15.242;2022-12-01T15:17:54;1.58;88.79
69335;SHT31;56477;52.742;15.242;2022-12-01T15:20:32;1.61;88.74
69335;SHT31;56477;52.742;15.242;2022-12-01T15:23:01;1.54;88.76
69335;SHT31;56477;52.742;15.242;2022-12-01T15:25:32;1.50;88.83
69335;SHT31;56477;52.742;15.242;2022-12-01T15:28:02;1.54;88.96
69335;SHT31;56477;52.742;15.242;2022-12-01T15:30:29;1.53;89.19
69335;SHT31;56477;52.742;15.242;2022-12-01T15:32:56;1.53;88.98
69335;SHT31;56477;52.742;15.242;2022-12-01T15:35:23;1.50;89.19
69335;SHT31;56477;52.742;15.242;2022-12-01T15:37:49;1.51;89.23
69335;SHT31;56477;52.742;15.242;2022-12-01T15:40:19;1.53;89.31
69335;SHT31;56477;52.742;15.242;2022-12-01T15:43:03;1.51;89.04
69335;SHT31;56477;52.742;15.242;2022-12-01T15:45:40;1.55;89.09
69335;SHT31;56477;52.742;15.242;2022-12-01T15:48:14;1.53;89.12
69335;SHT31;56477;52.742;15.242;2022-12-01T15:50:44;1.51;89.10
69335;SHT31;56477;52.742;15.242;2022-12-01T15:53:23;1.50;89.28
69335;SHT31;56477;52.742;15.242;2022-12-01T15:55:51;1.51;89.25
69335;SHT31;56477;52.742;15.242;2022-12-01T15:58:24;1.47;89.03
69335;SHT31;56477;52.742;15.242;2022-12-01T16:01:08;1.48;89.12
69335;SHT31;56477;52.742;15.242;2022-12-01T16:03:52;1.44;89.33
69335;SHT31;56477;52.742;15.242;2022-12-01T16:06:22;1.46;89.64
69335;SHT31;56477;52.742;15.242;2022-12-01T16:09:26;1.46;89.67
69335;SHT31;56477;52.742;15.242;2022-12-01T16:14:34;1.47;89.94
69335;SHT31;56477;52.742;15.242;2022-12-01T16:17:02;1.43;89.96
69335;SHT31;56477;52.742;15.242;2022-12-01T16:19:29;1.39;89.98
69335;SHT31;56477;52.742;15.242;2022-12-01T16:27:20;1.50;89.83
69335;SHT31;56477;52.742;15.242;2022-12-01T16:29:55;1.47;89.76
69335;SHT31;56477;52.742;15.242;2022-12-01T16:32:31;1.46;89.90
69335;SHT31;56477;52.742;15.242;2022-12-01T16:34:57;1.43;89.88
69335;SHT31;56477;52.742;15.242;2022-12-01T16:37:25;1.42;89.93
69335;SHT31;56477;52.742;15.242;2022-12-01T16:39:51;1.43;90.11
69335;SHT31;56477;52.742;15.242;2022-12-01T16:42:19;1.43;90.18
69335;SHT31;56477;52.742;15.242;2022-12-01T16:44:46;1.46;89.87
69335;SHT31;56477;52.742;15.242;2022-12-01T16:47:18;1.40;89.92
69335;SHT31;56477;52.742;15.242;2022-12-01T16:49:44;1.43;90.00
69335;SHT31;56477;52.742;15.242;2022-12-01T16:52:11;1.40;90.28
69335;SHT31;56477;52.742;15.242;2022-12-01T16:54:38;1.37;90.28
69335;SHT31;56477;52.742;15.242;2022-12-01T16:57:06;1.36;90.57
69335;SHT31;56477;52.742;15.242;2022-12-01T16:59:32;1.39;90.59
69335;SHT31;56477;52.742;15.242;2022-12-01T17:01:59;1.42;90.87
69335;SHT31;56477;52.742;15.242;2022-12-01T17:04:25;1.42;90.73
69335;SHT31;56477;52.742;15.242;2022-12-01T17:06:52;1.44;90.58
69335;SHT31;56477;52.742;15.242;2022-12-01T17:09:18;1.42;90.42
69335;SHT31;56477;52.742;15.242;2022-12-01T17:11:44;1.44;90.43
69335;SHT31;56477;52.742;15.242;2022-12-01T17:14:10;1.37;90.88
69335;SHT31;56477;52.742;15.242;2022-12-01T17:16:37;1.37;91.02
69335;SHT31;56477;52.742;15.242;2022-12-01T17:19:03;1.39;91.08
69335;SHT31;56477;52.742;15.242;2022-12-01T17:21:29;1.39;90.85
69335;SHT31;56477;52.742;15.242;2022-12-01T17:23:55;1.36;90.74
69335;SHT31;56477;52.742;15.242;2022-12-01T17:26:22;1.36;90.89
69335;SHT31;56477;52.742;15.242;2022-12-01T17:28:47;1.40;90.69
69335;SHT31;56477;52.742;15.242;2022-12-01T17:31:14;1.39;90.69
69335;SHT31;56477;52.742;15.242;2022-12-01T17:33:40;1.40;90.77
69335;SHT31;56477;52.742;15.242;2022-12-01T17:36:09;1.43;90.65
69335;SHT31;56477;52.742;15.242;2022-12-01T17:38:37;1.40;90.74
69335;SHT31;56477;52.742;15.242;2022-12-01T17:41:06;1.42;91.23
69335;SHT31;56477;52.742;15.242;2022-12-01T17:43:34;1.37;91.09
69335;SHT31;56477;52.742;15.242;2022-12-01T17:46:00;1.34;91.21
69335;SHT31;56477;52.742;15.242;2022-12-01T17:48:27;1.37;91.38
69335;SHT31;56477;52.742;15.242;2022-12-01T17:50:53;1.37;91.18
69335;SHT31;56477;52.742;15.242;2022-12-01T17:53:19;1.42;91.32
69335;SHT31;56477;52.742;15.242;2022-12-01T17:55:45;1.40;91.08
69335;SHT31;56477;52.742;15.242;2022-12-01T17:58:11;1.39;91.05
69335;SHT31;56477;52.742;15.242;2022-12-01T18:00:38;1.39;91.14
69335;SHT31;56477;52.742;15.242;2022-12-01T18:03:03;1.37;91.27
69335;SHT31;56477;52.742;15.242;2022-12-01T18:05:29;1.40;91.19
69335;SHT31;56477;52.742;15.242;2022-12-01T18:07:55;1.37;91.43
69335;SHT31;56477;52.742;15.242;2022-12-01T18:10:21;1.37;91.36
69335;SHT31;56477;52.742;15.242;2022-12-01T18:12:47;1.37;91.84
69335;SHT31;56477;52.742;15.242;2022-12-01T18:15:13;1.46;92.15